Stony Hill, Missouri
Current Conditions -  °F | °C
As of 6:15 AM on Monday 24 Nov 2014 (Local Time) from KFYG Reporting Station
Overcast Overcast  
Wind Chill: 31°   Ceiling: 2000
Heat Index: 39°   Visibility: 10mi
Dew Point: 36°   Wind: 15mph
Humidity: 87%   Direction: 290°WNW
Pressure: 29.5"   Gusts: 23mph
Location:  38.5502°N, 91.2585°W
Report Text: KFYG 241215Z AUTO 29013G20KT 10SM OVC020 04/02 A2950 RMK AO2
Loading
Personal Weather Stations






























Interactive Weather Map New forecast layout! Learn more

10-Day Weather Forecast

Advertisements
Track Severe Weather on mobile